Time;durP1;ratioP1;P1;durP2;ratioP2;P2;SDS_P1;SDS_P2;PMS_P1;PMS_P2;Temp;Humidity;BMP_temperature;BMP_pressure;BME280_temperature;BME280_humidity;BME280_pressure;Samples;Min_cycle;Max_cycle;Signal;HPM_P1;HPM_P2
2021/04/27 00:02:06;;;;;;;1.65;0.80;;;;;;;-148.56;100.00;61375.16;4993613;28;20563;-27
2021/04/27 00:05:30;;;;;;;0.80;0.60;;;;;;;-148.56;100.00;61375.16;4970684;28;20038;-31
2021/04/27 00:08:53;;;;;;;1.95;0.93;;;;;;;-148.56;100.00;61375.16;4990113;28;20152;-32
2021/04/27 00:12:17;;;;;;;4.82;0.77;;;;;;;-148.56;100.00;61375.16;4997514;28;22968;-31
2021/04/27 00:15:41;;;;;;;2.10;0.95;;;;;;;-148.56;100.00;61375.16;4996909;28;20033;-28
2021/04/27 00:19:05;;;;;;;2.13;1.02;;;;;;;-148.56;100.00;61375.16;5000490;28;20034;-29
2021/04/27 00:22:29;;;;;;;1.92;0.70;;;;;;;-148.56;100.00;61375.16;4992423;28;22326;-30
2021/04/27 00:25:53;;;;;;;2.05;0.80;;;;;;;-148.56;100.00;61375.16;4995567;28;20037;-29
2021/04/27 00:29:17;;;;;;;1.63;0.70;;;;;;;-148.56;100.00;61375.16;4995756;28;20139;-27
2021/04/27 00:32:41;;;;;;;1.17;0.77;;;;;;;-148.56;100.00;61375.16;5001048;28;20064;-30
2021/04/27 00:36:05;;;;;;;1.98;0.82;;;;;;;-148.56;100.00;61375.16;5001659;28;20037;-32
2021/04/27 00:39:29;;;;;;;1.58;0.70;;;;;;;-148.56;100.00;61375.16;4990609;28;20033;-30
2021/04/27 00:42:52;;;;;;;3.35;1.00;;;;;;;-148.56;100.00;61375.16;4995326;28;20036;-30
2021/04/27 00:46:17;;;;;;;1.85;0.82;;;;;;;-148.56;100.00;61375.16;4983295;28;20026;-31
2021/04/27 00:49:41;;;;;;;1.27;0.80;;;;;;;-148.56;100.00;61375.16;5001963;28;21009;-34
2021/04/27 00:53:05;;;;;;;1.60;0.80;;;;;;;-148.56;100.00;61375.16;4997038;28;20652;-29
2021/04/27 00:56:29;;;;;;;1.08;0.68;;;;;;;-148.56;100.00;61375.16;4999460;28;20475;-28
2021/04/27 00:59:55;;;;;;;1.58;0.90;;;;;;;-148.56;100.00;61375.16;4990899;28;20060;-29
2021/04/27 01:03:19;;;;;;;1.10;0.68;;;;;;;-148.56;100.00;61375.16;4994061;28;20029;-30
2021/04/27 01:06:43;;;;;;;1.27;0.65;;;;;;;-148.56;100.00;61375.16;4992522;28;20057;-32
2021/04/27 01:10:08;;;;;;;2.42;0.70;;;;;;;-148.56;100.00;61375.16;4992006;28;20072;-27
2021/04/27 01:13:36;;;;;;;1.60;0.57;;;;;;;-148.56;100.00;61375.16;4993814;28;20114;-29
2021/04/27 01:17:04;;;;;;;0.55;0.47;;;;;;;-148.56;100.00;61375.16;5000784;28;20030;-31
2021/04/27 01:20:38;;;;;;;1.95;0.60;;;;;;;-148.56;100.00;61375.16;4977819;28;20021;-29
2021/04/27 01:24:26;;;;;;;2.20;0.85;;;;;;;-148.56;100.00;61375.16;4992444;28;20175;-29
2021/04/27 01:27:50;;;;;;;1.00;0.80;;;;;;;-148.56;100.00;61375.16;4977002;28;20043;-31
2021/04/27 01:31:15;;;;;;;0.95;0.63;;;;;;;-148.56;100.00;61375.16;4975400;28;20029;-30
2021/04/27 01:34:40;;;;;;;1.75;0.50;;;;;;;-148.56;100.00;61375.16;4989492;28;20095;-28
2021/04/27 01:38:04;;;;;;;0.98;0.65;;;;;;;-148.56;100.00;61375.16;4997323;28;20030;-29
2021/04/27 01:41:28;;;;;;;1.63;0.50;;;;;;;-148.56;100.00;61375.16;4995050;28;20123;-33
2021/04/27 01:44:52;;;;;;;1.65;0.90;;;;;;;-148.56;100.00;61375.16;4992223;28;20026;-32
2021/04/27 01:48:16;;;;;;;2.28;0.70;;;;;;;-148.56;100.00;61375.16;4988862;28;20033;-30
2021/04/27 01:51:40;;;;;;;0.88;0.60;;;;;;;-148.56;100.00;61375.16;4979309;28;20057;-37
2021/04/27 01:55:05;;;;;;;0.68;0.68;;;;;;;-148.56;100.00;61375.16;4981312;28;20037;-31
2021/04/27 01:58:28;;;;;;;2.22;0.47;;;;;;;-148.56;100.00;61375.16;4977884;28;20492;-28
2021/04/27 02:01:44;;;;;;;1.88;0.80;;;;;;;-148.56;100.00;70519.34;4976314;28;20112;-30
2021/04/27 02:05:08;;;;;;;1.65;0.55;;;;;;;-148.56;100.00;61375.16;4999823;28;20029;-31
2021/04/27 02:07:34;;;;;;;1.08;0.70;;;;;;;26.32;21.96;95838.13;4995569;28;20084;-31
2021/04/27 02:10:56;;;;;;;0.90;0.47;;;;;;;-148.56;100.00;61375.16;4999239;28;20033;-30
2021/04/27 02:14:21;;;;;;;0.90;0.63;;;;;;;-148.56;100.00;61375.16;4993589;28;20045;-30
2021/04/27 02:18:02;;;;;;;1.00;0.43;;;;;;;-148.56;100.00;61375.16;4966313;28;20495;-29
2021/04/27 02:21:26;;;;;;;0.70;0.60;;;;;;;-148.56;100.00;61375.16;4963077;28;20030;-28
2021/04/27 02:24:50;;;;;;;2.08;0.50;;;;;;;-148.56;100.00;61375.16;4985691;28;20502;-28
2021/04/27 02:28:14;;;;;;;1.58;0.77;;;;;;;-148.56;100.00;61375.16;4968229;28;20033;-29
2021/04/27 02:31:38;;;;;;;2.72;0.80;;;;;;;-148.56;100.00;61375.16;4992397;28;20026;-31
2021/04/27 02:35:02;;;;;;;1.92;0.50;;;;;;;-148.56;100.00;61375.16;4973628;28;20125;-31
2021/04/27 02:38:26;;;;;;;0.70;0.50;;;;;;;-148.56;100.00;61375.16;4994416;28;20113;-29
2021/04/27 02:41:53;;;;;;;0.40;0.40;;;;;;;-148.56;100.00;61375.16;4997581;28;20034;-29
2021/04/27 02:45:17;;;;;;;1.02;0.60;;;;;;;-148.56;100.00;61375.16;4986665;28;20068;-29
2021/04/27 02:48:41;;;;;;;0.95;0.73;;;;;;;-148.56;100.00;61375.16;4989382;28;20038;-31
2021/04/27 02:52:05;;;;;;;1.73;0.57;;;;;;;-148.56;100.00;61375.16;4989538;28;20070;-27
2021/04/27 02:55:29;;;;;;;1.45;0.65;;;;;;;-148.56;100.00;61375.16;4989928;28;20034;-30
2021/04/27 02:58:53;;;;;;;1.20;0.80;;;;;;;-148.56;100.00;61375.16;4989222;28;20038;-28
2021/04/27 03:02:17;;;;;;;0.88;0.50;;;;;;;-148.56;100.00;61375.16;4996194;28;20026;-29
2021/04/27 03:05:41;;;;;;;1.33;0.70;;;;;;;-148.56;100.00;61375.16;4996266;28;20546;-31
2021/04/27 03:09:05;;;;;;;3.40;0.95;;;;;;;-148.56;100.00;61375.16;4991628;28;20117;-33
2021/04/27 03:12:29;;;;;;;1.52;0.50;;;;;;;-148.56;100.00;61375.16;4986892;28;20635;-32
2021/04/27 03:15:53;;;;;;;15.68;1.73;;;;;;;-148.56;100.00;61375.16;4995921;28;20036;-29
2021/04/27 03:19:16;;;;;;;2.05;0.80;;;;;;;-148.56;100.00;61375.16;4985510;28;20064;-28
2021/04/27 03:22:05;;;;;;;1.48;0.70;;;;;;;26.32;21.96;95838.13;4995988;28;20042;-30
2021/04/27 03:25:21;;;;;;;1.40;0.57;;;;;;;-148.56;100.00;61375.16;5002739;28;20053;-31
2021/04/27 03:28:45;;;;;;;1.25;0.55;;;;;;;-148.56;100.00;61375.16;4998051;28;20534;-29
2021/04/27 03:32:09;;;;;;;1.80;0.80;;;;;;;-148.56;100.00;61375.16;4999644;28;20064;-29
2021/04/27 03:35:33;;;;;;;3.97;0.70;;;;;;;-148.56;100.00;61375.16;5000724;28;20049;-30
2021/04/27 03:38:57;;;;;;;2.08;0.60;;;;;;;-148.56;100.00;61375.16;4991292;28;20072;-29
2021/04/27 03:42:20;;;;;;;1.65;0.70;;;;;;;-148.56;100.00;61375.16;5000460;28;20026;-34
2021/04/27 03:45:43;;;;;;;1.08;0.70;;;;;;;-148.56;100.00;61375.16;5001428;28;20681;-30
2021/04/27 03:48:11;;;;;;;1.85;0.70;;;;;;;26.21;22.20;95804.69;4992919;28;20522;-32
2021/04/27 03:50:37;;;;;;;2.20;0.40;;;;;;;26.21;22.21;95803.88;4998954;28;20045;-26
2021/04/27 03:53:02;;;;;;;2.13;0.90;;;;;;;26.19;22.33;95800.50;4993900;28;20034;-30
2021/04/27 03:55:28;;;;;;;2.35;0.70;;;;;;;26.19;22.34;95801.34;4982180;28;20036;-27
2021/04/27 03:57:53;;;;;;;1.98;0.60;;;;;;;26.20;22.44;95796.94;4998604;28;20419;-29
2021/04/27 04:00:19;;;;;;;0.93;0.50;;;;;;;26.20;22.29;95796.94;4993972;28;20018;-29
2021/04/27 04:02:44;;;;;;;1.85;0.80;;;;;;;26.19;22.21;95803.13;4998563;28;20041;-25
2021/04/27 04:05:11;;;;;;;1.48;0.63;;;;;;;26.19;22.49;95795.25;4997776;28;20048;-30
2021/04/27 04:08:35;;;;;;;2.40;0.70;;;;;;;-148.56;100.00;61375.16;4992274;28;20084;-27
2021/04/27 04:11:59;;;;;;;2.42;0.60;;;;;;;-148.56;100.00;61375.16;4999888;28;20032;-29
2021/04/27 04:15:22;;;;;;;1.85;0.70;;;;;;;-148.56;100.00;61375.16;4975299;28;20040;-28
2021/04/27 04:18:46;;;;;;;3.10;0.60;;;;;;;-148.56;100.00;61375.16;4997987;28;20116;-28
2021/04/27 04:22:10;;;;;;;1.60;0.70;;;;;;;-148.56;100.00;61375.16;4995045;28;20605;-29
2021/04/27 04:25:34;;;;;;;1.77;0.70;;;;;;;-148.56;100.00;61375.16;5001336;28;20105;-29
2021/04/27 04:28:58;;;;;;;2.55;0.70;;;;;;;-148.56;100.00;61375.16;4988995;28;20546;-29
2021/04/27 04:32:22;;;;;;;1.27;0.70;;;;;;;-148.56;100.00;61375.16;4994787;28;20038;-27
2021/04/27 04:34:47;;;;;;;4.18;0.40;;;;;;;26.18;22.24;95799.69;4998366;28;20053;-31
2021/04/27 04:37:12;;;;;;;0.50;0.50;;;;;;;26.17;22.34;95802.41;4996307;28;20041;-33
2021/04/27 04:39:38;;;;;;;0.50;0.43;;;;;;;26.16;22.52;95800.75;4999839;28;20639;-29
2021/04/27 04:42:03;;;;;;;0.93;0.40;;;;;;;26.15;22.34;95799.91;4993445;28;20022;-28
2021/04/27 04:44:31;;;;;;;2.05;0.70;;;;;;;26.16;22.40;95811.25;4993299;28;20029;-30
2021/04/27 04:46:57;;;;;;;1.67;0.50;;;;;;;26.14;22.24;95807.88;4997267;28;20038;-28
2021/04/27 04:49:24;;;;;;;2.45;0.60;;;;;;;26.14;22.37;95800.84;4996071;28;20038;-28
2021/04/27 04:51:52;;;;;;;1.20;0.50;;;;;;;26.09;22.40;95801.16;4990998;28;20034;-29
2021/04/27 04:54:19;;;;;;;0.60;0.50;;;;;;;26.15;22.50;95809.53;4997442;28;20032;-29
2021/04/27 04:56:44;;;;;;;1.60;0.60;;;;;;;26.14;22.46;95813.13;4999585;28;20048;-28
2021/04/27 04:59:10;;;;;;;1.80;0.60;;;;;;;26.15;22.26;95814.78;4995032;28;20061;-30
2021/04/27 05:01:35;;;;;;;0.75;0.47;;;;;;;26.14;22.35;95807.88;4976757;28;20551;-31
2021/04/27 05:04:00;;;;;;;5.22;0.50;;;;;;;26.14;22.39;95808.72;4996070;28;20030;-30
2021/04/27 05:06:27;;;;;;;1.65;0.50;;;;;;;26.14;22.32;95803.47;4996215;28;20036;-31
2021/04/27 05:08:54;;;;;;;0.50;0.50;;;;;;;26.14;22.23;95810.50;4982666;28;20057;-28
2021/04/27 05:11:20;;;;;;;2.03;0.75;;;;;;;26.15;22.45;95812.16;5000618;28;20029;-31
2021/04/27 05:13:45;;;;;;;2.78;0.60;;;;;;;26.13;22.34;95814.94;4975977;28;20026;-28
2021/04/27 05:16:11;;;;;;;2.30;0.80;;;;;;;26.14;22.39;95816.59;4991665;28;20057;-30
2021/04/27 05:18:36;;;;;;;0.88;0.68;;;;;;;26.13;22.38;95812.31;4987870;28;22120;-30
2021/04/27 05:21:02;;;;;;;2.05;0.55;;;;;;;26.13;22.48;95814.94;4999197;28;20030;-31
2021/04/27 05:23:28;;;;;;;1.85;0.70;;;;;;;26.12;22.36;95804.53;4973202;28;20439;-32
2021/04/27 05:25:53;;;;;;;1.20;0.60;;;;;;;26.13;22.50;95811.44;4977039;28;20041;-29
2021/04/27 05:28:18;;;;;;;1.27;0.45;;;;;;;26.13;22.38;95816.69;4994668;28;20048;-31
2021/04/27 05:31:42;;;;;;;1.65;0.52;;;;;;;-148.56;100.00;61375.16;4977292;28;20029;-26
2021/04/27 05:34:08;;;;;;;0.40;0.40;;;;;;;26.18;22.43;95804.09;4997240;28;20036;-27
2021/04/27 05:36:33;;;;;;;0.98;0.52;;;;;;;26.14;22.41;95813.13;4995228;28;20033;-28
2021/04/27 05:38:59;;;;;;;0.98;0.60;;;;;;;26.14;22.43;95818.38;4993711;28;20034;-31
2021/04/27 05:41:36;;;;;;;2.45;0.70;;;;;;;-148.56;100.00;61375.16;4994833;28;20487;-28
2021/04/27 05:44:43;;;;;;;1.20;0.50;;;;;;;-148.56;22.43;70330.47;4998650;28;20034;-30
2021/04/27 05:47:29;;;;;;;0.60;0.47;;;;;;;26.14;22.43;95818.38;4992765;28;20878;-31
2021/04/27 05:50:52;;;;;;;0.90;0.50;;;;;;;-148.56;100.00;61375.16;4991047;28;20060;-27
2021/04/27 05:54:03;;;;;;;1.35;0.35;;;;;;;-148.56;100.00;61375.16;4997090;28;20111;-32
2021/04/27 05:57:27;;;;;;;2.33;0.52;;;;;;;-148.56;100.00;61375.16;4992289;28;20127;-29
2021/04/27 06:00:51;;;;;;;1.55;0.60;;;;;;;-148.56;100.00;61375.16;4988293;28;20030;-28
2021/04/27 06:04:17;;;;;;;0.50;0.40;;;;;;;-148.56;100.00;61375.16;5001722;28;20029;-31
2021/04/27 06:07:41;;;;;;;1.58;0.75;;;;;;;-148.56;100.00;61375.16;4992612;28;20504;-27
2021/04/27 06:11:06;;;;;;;2.47;0.70;;;;;;;-148.56;100.00;61375.16;4989916;28;20041;-29
2021/04/27 06:14:30;;;;;;;0.98;0.57;;;;;;;-148.56;100.00;61375.16;4982056;28;20096;-30
2021/04/27 06:17:54;;;;;;;1.27;0.60;;;;;;;-148.56;100.00;61375.16;4992400;28;20042;-30
2021/04/27 06:20:26;;;;;;;2.20;0.82;;;;;;;26.14;100.00;83746.41;4996501;28;20037;-29
2021/04/27 06:23:50;;;;;;;7.28;0.70;;;;;;;-148.56;100.00;61375.16;4993917;28;20129;-26
2021/04/27 06:27:13;;;;;;;4.57;1.00;;;;;;;-148.56;100.00;61375.16;4985880;28;20419;-28
2021/04/27 06:30:37;;;;;;;10.27;1.33;;;;;;;-148.56;100.00;61375.16;4993581;28;20072;-25
2021/04/27 06:34:01;;;;;;;11.98;1.50;;;;;;;-148.56;100.00;61375.16;4987007;28;21823;-28
2021/04/27 06:37:25;;;;;;;6.63;1.25;;;;;;;-148.56;100.00;61375.16;4989846;28;20034;-28
2021/04/27 06:40:49;;;;;;;6.13;1.05;;;;;;;-148.56;100.00;61375.16;4990946;28;20037;-31
2021/04/27 06:44:13;;;;;;;7.53;1.35;;;;;;;-148.56;100.00;61375.16;4989141;28;20077;-34
2021/04/27 06:47:37;;;;;;;4.97;1.42;;;;;;;-148.56;100.00;61375.16;4992138;28;20030;-28
2021/04/27 06:51:02;;;;;;;10.77;2.47;;;;;;;-148.56;100.00;61375.16;4970187;28;20593;-26
2021/04/27 06:54:26;;;;;;;15.77;2.45;;;;;;;-148.56;100.00;61375.16;4991457;28;20034;-31
2021/04/27 06:57:50;;;;;;;9.40;2.38;;;;;;;-148.56;100.00;61375.16;4987581;28;20037;-27
2021/04/27 07:00:16;;;;;;;8.68;2.35;;;;;;;-148.56;100.00;61375.16;4990795;28;20034;-30
2021/04/27 07:02:41;;;;;;;4.03;2.30;;;;;;;-148.56;100.00;61375.16;4991397;28;20707;-30
2021/04/27 07:05:07;;;;;;;5.68;2.05;;;;;;;-148.56;100.00;61375.16;4989355;28;20037;-30
2021/04/27 07:07:33;;;;;;;7.30;2.30;;;;;;;-148.56;100.00;61375.16;4990554;28;20172;-29
2021/04/27 07:09:58;;;;;;;7.63;2.00;;;;;;;-148.56;100.00;61375.16;4990807;28;20115;-27
2021/04/27 07:12:23;;;;;;;9.10;2.58;;;;;;;-148.56;100.00;61375.16;4990096;28;20107;-28
2021/04/27 07:14:49;;;;;;;11.73;2.35;;;;;;;-148.56;100.00;61375.16;4992397;28;20087;-26
2021/04/27 07:17:14;;;;;;;9.07;2.50;;;;;;;-148.56;100.00;61375.16;4990794;28;20025;-29
2021/04/27 07:19:40;;;;;;;13.02;2.67;;;;;;;-148.56;100.00;61375.16;4990075;28;20037;-32
2021/04/27 07:22:05;;;;;;;15.05;2.70;;;;;;;-148.56;100.00;61375.16;4990852;28;20639;-32
2021/04/27 07:24:31;;;;;;;8.07;2.78;;;;;;;-148.56;100.00;61375.16;4990531;28;20033;-28
2021/04/27 07:26:56;;;;;;;12.27;2.60;;;;;;;-148.56;100.00;61375.16;4990384;28;20076;-29
2021/04/27 07:29:22;;;;;;;9.52;2.28;;;;;;;-148.56;100.00;61375.16;4990574;28;20392;-27
2021/04/27 07:31:47;;;;;;;6.68;2.20;;;;;;;-148.56;100.00;61375.16;4990771;28;20106;-28
2021/04/27 07:34:13;;;;;;;7.80;2.45;;;;;;;-148.56;100.00;61375.16;4985271;28;20042;-26
2021/04/27 07:36:38;;;;;;;11.68;2.90;;;;;;;-148.56;100.00;61375.16;4991128;28;20121;-32
2021/04/27 07:39:06;;;;;;;16.30;2.70;;;;;;;-148.56;100.00;61375.16;4971526;28;20037;-32
2021/04/27 07:41:31;;;;;;;12.75;2.90;;;;;;;-148.56;100.00;61375.16;4988272;28;20057;-32
2021/04/27 07:43:57;;;;;;;7.72;2.33;;;;;;;-148.56;100.00;61375.16;4993493;28;20045;-31
2021/04/27 07:46:22;;;;;;;8.40;2.38;;;;;;;-148.56;100.00;61375.16;4988109;28;20261;-28
2021/04/27 07:48:48;;;;;;;6.40;2.85;;;;;;;-148.56;100.00;61375.16;4988679;28;20727;-24
2021/04/27 07:51:14;;;;;;;9.65;2.58;;;;;;;-148.56;100.00;61375.16;4990373;28;20091;-28
2021/04/27 07:53:39;;;;;;;10.75;2.72;;;;;;;-148.56;100.00;61375.16;4990274;28;20061;-24
2021/04/27 07:56:05;;;;;;;9.68;2.80;;;;;;;-148.56;100.00;61375.16;4986190;28;20493;-31
2021/04/27 07:58:30;;;;;;;9.70;1.75;;;;;;;-148.56;100.00;61375.16;4995815;28;20030;-31
2021/04/27 08:00:56;;;;;;;8.23;1.75;;;;;;;-148.56;100.00;61375.16;4994263;28;20034;-30
2021/04/27 08:03:21;;;;;;;6.90;1.70;;;;;;;-148.56;100.00;61375.16;5001023;28;20042;-31
2021/04/27 08:05:48;;;;;;;9.68;1.80;;;;;;;-148.56;100.00;61375.16;5000191;28;20022;-30
2021/04/27 08:08:13;;;;;;;6.72;1.65;;;;;;;-148.56;100.00;61375.16;5000417;28;20033;-29
2021/04/27 08:10:39;;;;;;;3.63;1.40;;;;;;;-148.56;100.00;61375.16;5003939;28;20037;-32
2021/04/27 08:13:05;;;;;;;10.55;1.90;;;;;;;-148.56;100.00;61375.16;5002426;28;20026;-28
2021/04/27 08:15:30;;;;;;;3.08;1.65;;;;;;;-148.56;100.00;61375.16;5000447;28;20030;-32
2021/04/27 08:17:58;;;;;;;5.10;1.50;;;;;;;-148.56;100.00;61375.16;5000109;28;20438;-30
2021/04/27 08:20:24;;;;;;;9.80;2.72;;;;;;;-148.56;100.00;61375.16;5001209;28;20029;-32
2021/04/27 08:22:49;;;;;;;6.22;1.38;;;;;;;-148.56;100.00;61375.16;4995216;28;20496;-27
2021/04/27 08:25:15;;;;;;;4.13;1.38;;;;;;;-148.56;100.00;61375.16;5002190;28;20026;-29
2021/04/27 08:27:41;;;;;;;5.78;1.70;;;;;;;-148.56;100.00;61375.16;4984201;28;20256;-26
2021/04/27 08:30:07;;;;;;;6.05;1.60;;;;;;;-148.56;100.00;61375.16;5002175;28;20084;-29
2021/04/27 08:32:33;;;;;;;6.35;1.58;;;;;;;-148.56;100.00;61375.16;4993398;28;20540;-28
2021/04/27 08:34:58;;;;;;;6.22;1.60;;;;;;;-148.56;100.00;61375.16;4987839;28;20040;-32
2021/04/27 08:37:24;;;;;;;13.32;1.63;;;;;;;-148.56;100.00;61375.16;4990310;28;20041;-29
2021/04/27 08:39:49;;;;;;;5.93;1.48;;;;;;;-148.56;100.00;61375.16;4995589;28;20033;-29
2021/04/27 08:42:16;;;;;;;4.97;2.00;;;;;;;-148.56;100.00;61375.16;4992311;28;20478;-30
2021/04/27 08:44:41;;;;;;;3.95;1.55;;;;;;;-148.56;100.00;61375.16;4993653;28;20029;-27
2021/04/27 08:47:08;;;;;;;3.22;1.48;;;;;;;-148.56;100.00;61375.16;4981811;28;20033;-30
2021/04/27 08:49:33;;;;;;;7.13;1.35;;;;;;;-148.56;100.00;61375.16;4989745;28;20588;-27
2021/04/27 08:51:58;;;;;;;6.35;1.65;;;;;;;-148.56;100.00;61375.16;4993180;28;20045;-32
2021/04/27 08:54:24;;;;;;;3.72;1.48;;;;;;;-148.56;100.00;61375.16;4992761;28;20549;-32
2021/04/27 08:56:49;;;;;;;9.00;1.50;;;;;;;-148.56;100.00;61375.16;5000072;28;20044;-30
2021/04/27 08:59:15;;;;;;;3.00;1.40;;;;;;;-148.56;100.00;61375.16;4997200;28;20461;-30
2021/04/27 09:01:40;;;;;;;5.75;1.50;;;;;;;-148.56;100.00;61375.16;4990885;28;20041;-26
2021/04/27 09:04:06;;;;;;;6.15;1.30;;;;;;;-148.56;100.00;61375.16;4990763;28;22026;-30
2021/04/27 09:06:31;;;;;;;4.13;1.33;;;;;;;-148.56;100.00;61375.16;4988394;28;20033;-30
2021/04/27 09:08:58;;;;;;;8.25;2.50;;;;;;;26.40;21.99;95753.53;4989463;28;20025;-27
2021/04/27 09:12:52;;;;;;;10.75;4.75;;;;;;;-148.56;100.00;61375.16;4994281;28;20026;-29
2021/04/27 09:16:26;;;;;;;12.98;4.25;;;;;;;-148.56;100.00;61375.16;4991839;28;20053;-30
2021/04/27 09:19:50;;;;;;;11.32;3.50;;;;;;;-148.56;100.00;61375.16;4996088;28;20049;-26
2021/04/27 09:23:18;;;;;;;8.15;3.90;;;;;;;-148.56;100.00;61375.16;4994827;28;20052;-28
2021/04/27 09:27:03;;;;;;;15.50;4.45;;;;;;;-148.56;100.00;61375.16;5002294;28;20642;-30
2021/04/27 09:30:29;;;;;;;14.23;3.97;;;;;;;-148.56;100.00;61375.16;4994555;28;20125;-28
2021/04/27 09:34:16;;;;;;;14.05;4.50;;;;;;;-148.56;100.00;61375.16;4994680;28;20385;-27
2021/04/27 09:37:40;;;;;;;17.75;5.03;;;;;;;-148.56;100.00;61375.16;4980193;28;20422;-32
2021/04/27 09:41:05;;;;;;;12.05;3.97;;;;;;;-148.56;100.00;61375.16;4978980;28;20026;-28
2021/04/27 09:44:41;;;;;;;15.57;4.05;;;;;;;-148.56;100.00;61375.16;4974435;28;20045;-28
2021/04/27 09:48:27;;;;;;;21.55;4.25;;;;;;;-148.56;100.00;61375.16;4991463;28;20149;-27
2021/04/27 09:51:51;;;;;;;11.98;3.65;;;;;;;-148.56;100.00;61375.16;4991350;28;20072;-32
2021/04/27 09:55:20;;;;;;;6.35;3.63;;;;;;;-148.56;100.00;61375.16;4966623;28;20065;-31
2021/04/27 09:58:49;;;;;;;7.72;3.58;;;;;;;-148.56;100.00;61375.16;4991566;28;20036;-28
2021/04/27 10:02:19;;;;;;;7.82;3.78;;;;;;;-148.56;100.00;61375.16;4978498;28;20362;-29
2021/04/27 10:05:45;;;;;;;12.30;3.60;;;;;;;-148.56;100.00;61375.16;4988717;28;21094;-25
2021/04/27 10:09:09;;;;;;;7.00;3.53;;;;;;;-148.56;100.00;61375.16;4981588;28;20044;-29
2021/04/27 10:12:34;;;;;;;11.73;2.88;;;;;;;-148.56;100.00;61375.16;4988300;28;20057;-31
2021/04/27 10:15:58;;;;;;;6.22;3.80;;;;;;;-148.56;100.00;61375.16;4991623;28;20188;-28
2021/04/27 10:19:22;;;;;;;11.75;3.20;;;;;;;-148.56;100.00;61375.16;4990933;28;20053;-29
2021/04/27 10:22:46;;;;;;;9.95;3.63;;;;;;;-148.56;100.00;61375.16;4992693;28;20761;-27
2021/04/27 10:26:29;;;;;;;13.98;3.92;;;;;;;-148.56;100.00;61375.16;4997248;28;20472;-29
2021/04/27 10:29:57;;;;;;;8.75;3.70;;;;;;;-148.56;100.00;61375.16;4977001;28;20795;-29
2021/04/27 10:33:24;;;;;;;7.35;3.78;;;;;;;-148.56;100.00;61375.16;4990771;28;20607;-31
2021/04/27 10:37:07;;;;;;;8.15;3.78;;;;;;;-148.56;100.00;61375.16;4990915;28;20066;-27
2021/04/27 10:40:47;;;;;;;6.43;3.17;;;;;;;-148.56;100.00;61375.16;4990193;28;20068;-27
2021/04/27 10:44:21;;;;;;;7.57;3.33;;;;;;;-148.56;100.00;61375.16;4994087;28;20025;-27
2021/04/27 10:47:48;;;;;;;5.15;3.60;;;;;;;-148.56;100.00;61375.16;4991142;28;20038;-31
2021/04/27 10:51:25;;;;;;;5.75;3.72;;;;;;;-148.56;100.00;61375.16;4992876;28;20635;-28
2021/04/27 10:55:19;;;;;;;6.95;3.47;;;;;;;-148.56;100.00;61375.16;4989895;28;20046;-30
2021/04/27 10:58:47;;;;;;;7.20;4.82;;;;;;;-148.56;100.00;61375.16;4996310;28;20059;-28
2021/04/27 11:02:20;;;;;;;12.00;4.40;;;;;;;-148.56;100.00;61375.16;4988769;28;20640;-26
2021/04/27 11:05:54;;;;;;;6.18;3.47;;;;;;;-148.56;100.00;61375.16;4989316;28;20038;-26
2021/04/27 11:09:17;;;;;;;5.85;3.70;;;;;;;-148.56;100.00;61375.16;4992728;28;20064;-26
2021/04/27 11:12:42;;;;;;;6.88;3.70;;;;;;;-148.56;100.00;61375.16;4990265;28;20037;-29
2021/04/27 11:16:36;;;;;;;7.90;4.30;;;;;;;-148.56;100.00;61375.16;4979113;28;20048;-29
2021/04/27 11:20:38;;;;;;;14.98;5.57;;;;;;;-148.56;100.00;61375.16;4969849;28;20049;-28
2021/04/27 11:24:07;;;;;;;9.38;5.88;;;;;;;-148.56;100.00;61375.16;4988762;28;20041;-30
2021/04/27 11:27:33;;;;;;;13.63;5.85;;;;;;;-148.56;100.00;61375.16;4985624;28;20450;-26
2021/04/27 11:31:11;;;;;;;10.95;6.05;;;;;;;-148.56;100.00;61375.16;4984700;28;20037;-27
2021/04/27 11:34:54;;;;;;;8.25;5.50;;;;;;;-148.56;100.00;61375.16;4967447;28;20865;-30
2021/04/27 11:38:21;;;;;;;10.40;5.35;;;;;;;-148.56;100.00;61375.16;4980293;28;20037;-29
2021/04/27 11:41:47;;;;;;;10.80;5.03;;;;;;;-148.56;100.00;61375.16;4989846;28;20049;-27
2021/04/27 11:45:13;;;;;;;7.32;4.35;;;;;;;-148.56;100.00;61375.16;4997656;28;20026;-27
2021/04/27 11:48:37;;;;;;;5.68;4.35;;;;;;;-148.56;100.00;61375.16;4996365;28;20149;-27
2021/04/27 11:52:01;;;;;;;5.57;3.85;;;;;;;-148.56;100.00;61375.16;4974587;28;20255;-29
2021/04/27 11:55:41;;;;;;;10.73;4.55;;;;;;;-148.56;100.00;61375.16;4993171;28;20037;-28
2021/04/27 11:59:09;;;;;;;9.25;5.18;;;;;;;-148.56;100.00;61375.16;4995795;28;20108;-31
2021/04/27 12:02:33;;;;;;;12.52;4.80;;;;;;;-148.56;100.00;61375.16;4994915;28;20053;-33
2021/04/27 12:05:59;;;;;;;12.25;4.30;;;;;;;-148.56;100.00;61375.16;4989891;28;20599;-30
2021/04/27 12:09:23;;;;;;;11.13;4.68;;;;;;;-148.56;100.00;61375.16;4986528;28;20243;-32
2021/04/27 12:12:47;;;;;;;9.10;4.28;;;;;;;-148.56;100.00;61375.16;4990999;28;20064;-27
2021/04/27 12:16:15;;;;;;;11.70;3.03;;;;;;;-148.56;100.00;61375.16;4985840;28;20524;-25
2021/04/27 12:20:00;;;;;;;13.25;2.72;;;;;;;-148.56;100.00;61375.16;4994053;28;20034;-27
2021/04/27 12:23:24;;;;;;;11.57;2.70;;;;;;;-148.56;100.00;61375.16;4975768;28;20152;-31
2021/04/27 12:26:50;;;;;;;7.03;2.70;;;;;;;-148.56;100.00;61375.16;4998415;28;20061;-28
2021/04/27 12:30:22;;;;;;;11.38;2.63;;;;;;;-148.56;100.00;61375.16;5000666;28;20120;-31
2021/04/27 12:34:02;;;;;;;6.50;2.28;;;;;;;-148.56;100.00;61375.16;4981272;28;20034;-25
2021/04/27 12:37:33;;;;;;;8.90;2.13;;;;;;;-148.56;100.00;61375.16;5000876;28;20076;-28
2021/04/27 12:40:58;;;;;;;10.57;2.08;;;;;;;-148.56;100.00;61375.16;4998361;28;20030;-32
2021/04/27 12:44:26;;;;;;;6.25;2.20;;;;;;;-148.56;100.00;61375.16;5000346;28;20037;-24
2021/04/27 12:48:03;;;;;;;5.68;1.80;;;;;;;-148.56;100.00;61375.16;4994679;28;20025;-33
2021/04/27 12:51:27;;;;;;;9.20;2.22;;;;;;;-148.56;100.00;61375.16;4998357;28;20423;-30
2021/04/27 12:55:02;;;;;;;11.15;2.08;;;;;;;-148.56;100.00;61375.16;4997495;28;20026;-26
2021/04/27 12:58:26;;;;;;;5.55;1.70;;;;;;;-148.56;100.00;61375.16;5001689;28;20029;-29
2021/04/27 13:01:57;;;;;;;3.10;1.70;;;;;;;-148.56;100.00;61375.16;4996125;28;20128;-27
2021/04/27 13:05:25;;;;;;;3.95;1.90;;;;;;;-148.56;100.00;61375.16;4998545;28;20057;-30
2021/04/27 13:09:07;;;;;;;6.30;1.65;;;;;;;-148.56;100.00;61375.16;5001927;28;20033;-29
2021/04/27 13:12:31;;;;;;;4.75;1.80;;;;;;;-148.56;100.00;61375.16;4987079;28;20034;-28
2021/04/27 13:16:02;;;;;;;5.05;1.60;;;;;;;-148.56;100.00;61375.16;4998164;28;20026;-28
2021/04/27 13:19:26;;;;;;;4.53;1.63;;;;;;;-148.56;100.00;61375.16;5001972;28;20813;-29
2021/04/27 13:23:13;;;;;;;4.85;1.77;;;;;;;-148.56;100.00;61375.16;5001091;28;20038;-25
2021/04/27 13:26:41;;;;;;;4.20;1.98;;;;;;;-148.56;100.00;61375.16;4977737;28;20029;-24
2021/04/27 13:30:15;;;;;;;3.38;1.70;;;;;;;-148.56;100.00;61375.16;4998282;28;20030;-31
2021/04/27 13:33:50;;;;;;;3.47;1.75;;;;;;;-148.56;100.00;61375.16;4995850;28;20029;-26
2021/04/27 13:37:13;;;;;;;2.97;1.45;;;;;;;-148.56;100.00;61375.16;5000468;28;20096;-28
2021/04/27 13:40:38;;;;;;;2.33;1.50;;;;;;;-148.56;100.00;61375.16;4994536;28;20033;-29
2021/04/27 13:44:03;;;;;;;4.95;1.55;;;;;;;-148.56;100.00;61375.16;5000757;28;20056;-29
2021/04/27 13:47:27;;;;;;;2.75;1.45;;;;;;;-148.56;100.00;61375.16;5001336;28;20490;-27
2021/04/27 13:50:51;;;;;;;2.78;1.58;;;;;;;-148.56;100.00;61375.16;4997710;28;20984;-30
2021/04/27 13:54:16;;;;;;;3.92;1.80;;;;;;;-148.56;100.00;61375.16;4996562;28;20065;-27
2021/04/27 13:57:41;;;;;;;2.92;1.42;;;;;;;-148.56;100.00;61375.16;4995731;28;20520;-29
2021/04/27 14:01:05;;;;;;;2.53;1.10;;;;;;;-148.56;100.00;61375.16;4999822;28;20603;-26
2021/04/27 14:04:29;;;;;;;2.30;1.50;;;;;;;-148.56;100.00;61375.16;4992028;28;20118;-23
2021/04/27 14:07:54;;;;;;;5.03;1.60;;;;;;;-148.56;100.00;61375.16;4995901;28;20061;-30
2021/04/27 14:11:18;;;;;;;6.47;1.60;;;;;;;-148.56;100.00;61375.16;4996200;28;20109;-28